Station: NURIOOTPA AWS

  Atmospheric Gas Attenuation - ITU Rec 676-11   --------------- db/100km ---------------
Date Time Temp RH % AH g/m3 Dew Point Wind Direction Speed kph Gust kph Barometer mB Rainfall Since 9am 24GHz 47GHz 76GHz 122GHz 134GHz 241GHz
24 20:30 30.7 26 8.19 9 7 9 1002.6 0 18.0 20.7 30.7 80.4 74.7 257.3
24 20:20 32 24 8.1 8.9 7 7 1002.6 0 17.7 20.3 29.9 78.5 72.6 250.2
24 20:10 32.8 23 8.1 8.9 4 6 1002.6 0 17.7 20.1 29.6 77.7 71.9 247.8
24 20:00 33.8 19 7.06 7 6 11 1002.4 0 15.5 18.6 26.2 68.6 60.9 209.4
24 19:50 34.2 18 6.83 6.5 7 9 1002.6 0 15.1 18.3 25.5 66.5 58.5 200.8
24 19:40 34.5 18 6.94 6.7 13 15 1002.5 0 15.3 18.4 25.7 67.1 59.3 203.7
24 19:30 34.9 18 7.08 7.1 20 35 1002.1 0 15.5 18.4 25.9 67.9 60.3 207.3
24 19:20 35.7 16 6.56 6 19 22 1002.1 0 14.5 17.7 24.2 63.3 54.9 188.5
24 19:10 36 18 7.5 8 0 0 1001.7 0 16.4 18.7 26.8 70.2 63.4 218.4
24 19:00 36.6 15 6.45 5.8 6 9 1001.4 0 14.2 17.4 23.7 61.8 53.3 182.9
24 18:50 37.2 13 5.76 4.2 6 6 1001.5 0 12.8 16.5 21.7 56.5 46.9 160.3
24 18:40 37.9 12 5.51 3.6 11 13 1001.5 0 12.2 16.2 20.9 54.3 44.4 151.4
24 18:30 38 12 5.54 3.7 13 17 1001.4 0 12.3 16.2 20.9 54.4 44.6 152.1
24 18:20 38.4 11 5.18 2.8 15 17 1001.4 0 11.6 15.7 19.9 51.7 41.3 140.7
24 18:10 38.7 11 5.26 3 11 15 1001.4 0 11.7 15.8 20.0 52.1 41.8 142.6
24 18:00 38.7 11 5.26 3 11 17 1001.4 0 11.7 15.8 20.0 52.1 41.8 142.6
24 17:50 38.8 12 5.77 4.3 9 11 1001.5 0 12.7 16.3 21.3 55.5 46.1 157.7
24 17:40 39.3 11 5.42 3.4 15 19 1001.5 0 12.0 15.8 20.3 52.8 42.9 146.4
24 17:30 39.5 11 5.48 3.6 9 17 1001.4 0 12.1 15.9 20.4 53.1 43.3 147.8
24 17:20 40 11 5.62 4 2 7 1001.7 0 12.4 15.9 20.6 53.8 44.2 151.1
24 17:10 40.2 11 5.68 4.1 20 24 1001.8 0 12.5 16.0 20.8 54.1 44.6 152.6
24 17:00 40.1 11 5.65 4 15 24 1001.8 0 12.5 16.0 20.7 53.9 44.4 151.8
24 16:50 39.9 11 5.59 3.9 13 19 1002.1 0 12.3 15.9 20.6 53.7 44.0 150.5
24 16:40 39.3 11 5.42 3.4 13 17 1002.3 0 12.0 15.9 20.3 52.9 42.9 146.5
24 16:30 39.4 11 5.45 3.5 19 33 1002.1 0 12.1 15.9 20.4 53.0 43.1 147.2
24 16:20 39.9 11 5.59 3.9 22 30 1002.4 0 12.3 15.9 20.6 53.7 44.1 150.5
24 16:10 40 11 5.62 4 13 19 1002.4 0 12.4 16.0 20.7 53.8 44.3 151.2
24 16:00 40.1 10 5.13 2.7 13 30 1002.3 0 11.4 15.4 19.4 50.5 40.1 136.7
24 15:50 41 10 5.37 3.4 19 24 1002.6 0 11.9 15.5 19.8 51.6 41.7 142.3
24 15:40 40.5 11 5.76 4.3 19 26 1002.8 0 12.7 16.0 20.9 54.5 45.2 154.5
24 15:30 41 10 5.37 3.4 11 24 1002.7 0 11.9 15.5 19.8 51.6 41.7 142.3
24 15:20 40.5 11 5.76 4.3 15 17 1003.2 0 12.7 16.0 20.9 54.5 45.2 154.6
24 15:10 40.3 11 5.7 4.2 13 19 1003.2 0 12.6 16.0 20.8 54.2 44.8 153.2
24 15:00 40.7 10 5.29 3.1 13 20 1003.2 0 11.7 15.5 19.7 51.2 41.2 140.5
24 14:50 40.2 11 5.68 4.1 17 20 1003.5 0 12.5 16.0 20.8 54.2 44.7 152.8
24 14:40 39.6 11 5.51 3.7 20 26 1003.7 0 12.2 15.9 20.5 53.4 43.6 148.8
24 14:30 39.9 11 5.59 3.9 17 28 1003.6 0 12.3 16.0 20.6 53.8 44.1 150.7
24 14:20 40.2 11 5.68 4.1 22 28 1003.8 0 12.5 16.0 20.8 54.2 44.7 152.8
24 14:10 39.8 12 6.07 5.1 13 15 1003.9 0 13.3 16.5 21.9 57.1 48.2 165.2
24 14:00 40.4 11 5.73 4.3 15 26 1003.9 0 12.6 16.0 20.9 54.4 45.0 154.0
24 13:50 39.9 11 5.59 3.9 15 20 1004 0 12.3 16.0 20.7 53.8 44.1 150.7
24 13:40 40.6 11 5.79 4.4 13 17 1004.1 0 12.7 16.1 21.0 54.7 45.4 155.4
24 13:30 40.8 10 5.32 3.2 17 28 1004.3 0 11.8 15.6 19.8 51.4 41.4 141.3
24 13:20 39.9 11 5.59 3.9 20 24 1004.6 0 12.3 16.0 20.7 53.8 44.1 150.8
24 13:10 39.4 11 5.45 3.5 24 30 1004.6 0 12.1 15.9 20.4 53.2 43.2 147.5
24 13:00 39.8 11 5.56 3.8 19 33 1004.6 0 12.3 16.0 20.6 53.7 43.9 150.1
24 12:50 39.8 11 5.56 3.8 24 33 1004.9 0 12.3 16.0 20.6 53.7 44.0 150.1
24 12:40 40.8 10 5.32 3.2 22 32 1005 0 11.8 15.6 19.8 51.5 41.5 141.4
24 12:30 40.3 11 5.7 4.2 17 26 1005.1 0 12.6 16.1 20.9 54.3 44.9 153.4
24 12:20 40.5 11 5.76 4.3 15 17 1005.4 0 12.7 16.1 21.0 54.7 45.3 154.9
24 12:10 39.6 10 5.01 2.3 15 19 1005.5 0 11.2 15.5 19.3 50.1 39.5 134.3
24 12:00 39.8 11 5.56 3.8 19 32 1005.4 0 12.3 16.0 20.6 53.7 44.0 150.2
24 11:50 39.6 10 5.01 2.3 15 19 1005.7 0 11.2 15.5 19.3 50.1 39.5 134.4
24 11:40 40.1 11 5.65 4 20 24 1005.8 0 12.5 16.1 20.8 54.2 44.6 152.4
24 11:30 39 11 5.34 3.2 17 28 1005.7 0 11.9 15.9 20.3 52.7 42.5 145.0
24 11:20 38.2 11 5.13 2.6 17 20 1006.1 0 11.5 15.8 19.9 51.8 41.2 140.1
24 11:10 37.6 11 4.98 2.1 17 24 1006.2 0 11.2 15.8 19.7 51.1 40.2 136.6
24 11:00 36.9 11 4.8 1.6 15 24 1006.3 0 10.8 15.7 19.4 50.3 39.0 132.3
24 10:50 36.9 11 4.8 1.6 13 20 1006.4 0 10.8 15.7 19.4 50.3 39.0 132.3
24 10:40 36.3 11 4.65 1.2 17 20 1006.5 0 10.6 15.6 19.1 49.6 38.0 128.7
24 10:30 35.8 11 4.54 0.8 17 30 1006.5 0 10.3 15.6 19.0 49.1 37.3 126.2
24 10:20 35.4 11 4.44 0.5 19 24 1006.7 0 10.2 15.6 18.8 48.7 36.6 123.7
24 10:10 34.8 12 4.7 1.2 13 15 1006.8 0 10.7 15.9 19.6 50.8 39.1 132.5
24 10:00 34.2 11 4.17 -0.4 15 22 1006.9 0 9.6 15.5 18.4 47.5 34.8 117.3
24 09:50 34 12 4.5 0.6 13 17 1007.1 0 10.3 15.9 19.3 49.9 37.7 127.6
24 09:40 33.6 12 4.41 0.3 22 26 1007.1 0 10.1 15.8 19.1 49.5 37.1 125.4
24 09:30 33.6 12 4.41 0.3 17 30 1007.1 0 10.1 15.8 19.1 49.5 37.1 125.4
24 09:20 33.5 12 4.39 0.2 24 30 1007.3 0 10.1 15.8 19.1 49.4 37.0 125.0
24 09:10 33.2 12 4.32 0 17 24 1007.3 0 10.0 15.8 19.0 49.1 36.5 123.3
24 09:00 33.1 13 4.65 1 19 28 1007.2 0 10.6 16.2 19.9 51.5 39.4 133.6
24 08:50 32.8 13 4.58 0.8 20 24 1007.3 0 10.5 16.1 19.8 51.2 39.0 131.9
24 08:40 31.1 15 4.83 1.4 17 22 1007.4 0 11.1 16.7 20.8 54.0 42.0 142.5
24 08:30 30.7 15 4.72 1.1 13 17 1007.3 0 10.9 16.6 20.6 53.5 41.2 139.6
24 08:20 30 15 4.55 0.6 15 19 1007.4 0 10.5 16.6 20.3 52.7 40.0 135.2
24 08:10 29.3 18 5.26 2.5 13 17 1007.4 0 12.0 17.5 22.5 58.5 47.0 159.7
24 08:00 28.6 20 5.62 3.5 13 19 1007.2 0 12.8 18.1 23.7 61.7 50.8 173.2
24 07:50 28.1 21 5.74 3.7 11 13 1007.3 0 13.0 18.3 24.2 63.0 52.3 178.3
24 07:40 27.8 22 5.92 4.2 13 20 1007.3 0 13.4 18.6 24.8 64.7 54.2 185.2
24 07:30 27.3 23 6.02 4.4 13 19 1007.1 0 13.6 18.8 25.3 65.9 55.6 189.8
24 07:20 27.4 22 5.79 3.8 17 20 1007.2 0 13.2 18.5 24.6 64.0 53.2 181.5
24 07:10 27.3 22 5.76 3.7 13 17 1007.2 0 13.1 18.5 24.5 63.8 53.0 180.7
24 07:00 27.2 22 5.73 3.7 17 24 1007.1 0 13.0 18.5 24.4 63.6 52.7 179.9
24 06:50 26.9 22 5.63 3.4 13 17 1007.2 0 12.8 18.4 24.2 63.1 51.9 177.0
24 06:40 26.9 22 5.63 3.4 13 15 1007.2 0 12.8 18.4 24.2 63.1 51.9 177.0
24 06:30 27.1 22 5.69 3.6 15 24 1007.2 0 13.0 18.4 24.3 63.4 52.4 178.7
24 06:20 27.1 22 5.69 3.6 15 17 1007.2 0 13.0 18.4 24.3 63.4 52.4 178.7
24 06:10 26 24 5.84 3.9 13 17 1007.2 0 13.3 18.8 25.1 65.4 54.6 186.4
24 06:00 25.3 25 5.85 3.9 11 17 1006.9 0 13.3 19.0 25.3 66.0 55.2 188.2
24 05:50 25.7 24 5.75 3.6 11 13 1006.9 0 13.1 18.8 24.9 64.9 53.9 183.8
24 05:40 25.1 26 6.02 4.3 9 13 1006.9 0 13.7 19.2 25.9 67.6 57.0 194.8
24 05:30 25.2 26 6.05 4.3 9 15 1006.7 0 13.8 19.2 26.0 67.8 57.3 195.6
24 05:20 24.9 26 5.95 4.1 11 13 1006.8 0 13.6 19.2 25.8 67.2 56.4 192.7
24 04:50 26.3 25 6.19 4.7 11 13 1006.8 0 14.0 19.2 26.1 68.0 57.9 198.1
24 04:40 26.8 24 6.11 4.6 9 11 1006.8 0 13.8 19.0 25.7 67.0 56.8 194.1
24 04:30 27.2 23 5.99 4.3 11 17 1006.6 0 13.6 18.8 25.2 65.7 55.3 188.9
24 04:20 27.2 24 6.25 4.9 11 13 1006.7 0 14.1 19.1 26.0 67.8 57.9 198.1
24 04:10 27.5 24 6.35 5.1 11 13 1006.7 0 14.3 19.1 26.2 68.4 58.7 200.9
24 04:00 27.5 24 6.35 5.1 15 19 1006.7 0 14.3 19.1 26.2 68.4 58.7 200.9
24 03:50 27.7 24 6.42 5.3 17 19 1006.9 0 14.4 19.2 26.4 68.8 59.3 203.0
24 03:40 27.8 24 6.46 5.4 17 22 1006.8 0 14.5 19.2 26.4 69.0 59.6 204.1

Last Refresh: 24-Jan-2021 20:40:16

Most of the information presented on this site is sourced from the Bureau of Meteorology.  Copyright in all material sourced from the Bureau of Meteorology resides with the Commonwealth of Australia.